DFOXY EDDW-EDXW
Flight info
| Callsign | DFOXY |
|---|---|
| Flight time | 0h 39m |
| Altitude | 16000 |
| Route | WSN1M WSN DCT NOR DCT ABFAD/N0282F150 DCT OLDIP |
| Aircraft | TBM8/L-SBDFGRWY/S |
Departure
| Time | 2026-05-06 15:59 |
|---|---|
| Airport | Bremen Airport (EDDW) |
Arrival
| Time | 2026-05-06 16:39 |
|---|---|
| Airport | Westerland Sylt Airport (EDXW) |
| Time | Latitude | Longitude | Altitude | Speed | Heading |
|---|---|---|---|---|---|
| 2026-05-06 15:40 | 53.05028 | 8.78141 | 17 ft | 0 kts | 99° |
| 2026-05-06 15:55 | 53.05030 | 8.78153 | 17 ft | 5 kts | 54° |
| 2026-05-06 15:55 | 53.05093 | 8.78106 | 17 ft | 17 kts | 320° |
| 2026-05-06 15:55 | 53.05155 | 8.78012 | 17 ft | 5 kts | 339° |
| 2026-05-06 15:55 | 53.05150 | 8.77959 | 17 ft | 9 kts | 237° |
| 2026-05-06 15:56 | 53.05085 | 8.77835 | 17 ft | 19 kts | 229° |
| 2026-05-06 15:56 | 53.04992 | 8.77665 | 17 ft | 16 kts | 229° |
| 2026-05-06 15:56 | 53.04925 | 8.77554 | 17 ft | 14 kts | 219° |
| 2026-05-06 15:56 | 53.04849 | 8.77482 | 16 ft | 10 kts | 202° |
| 2026-05-06 15:57 | 53.04824 | 8.77469 | 17 ft | 0 kts | 193° |
| 2026-05-06 15:57 | 53.04807 | 8.77465 | 17 ft | 9 kts | 190° |
| 2026-05-06 15:57 | 53.04708 | 8.77454 | 18 ft | 16 kts | 173° |
| 2026-05-06 15:57 | 53.04655 | 8.77484 | 16 ft | 5 kts | 62° |
| 2026-05-06 15:58 | 53.04657 | 8.77494 | 16 ft | 0 kts | 90° |
| 2026-05-06 15:58 | 53.04662 | 8.77740 | 15 ft | 51 kts | 88° |
| 2026-05-06 15:59 | 53.04681 | 8.78649 | 43 ft | 101 kts | 85° |
| 2026-05-06 15:59 | 53.04720 | 8.79928 | 361 ft | 114 kts | 79° |
| 2026-05-06 15:59 | 53.04738 | 8.81338 | 834 ft | 122 kts | 83° |
| 2026-05-06 15:59 | 53.04807 | 8.82703 | 1468 ft | 114 kts | 77° |
| 2026-05-06 16:00 | 53.04868 | 8.83975 | 2118 ft | 107 kts | 81° |
| 2026-05-06 16:00 | 53.04868 | 8.85218 | 2657 ft | 107 kts | 85° |
| 2026-05-06 16:00 | 53.04852 | 8.86476 | 3130 ft | 110 kts | 83° |
| 2026-05-06 16:00 | 53.04904 | 8.87708 | 3687 ft | 106 kts | 80° |
| 2026-05-06 16:01 | 53.04965 | 8.88984 | 4105 ft | 112 kts | 82° |
| 2026-05-06 16:01 | 53.04997 | 8.90200 | 4662 ft | 110 kts | 86° |
| 2026-05-06 16:01 | 53.04920 | 8.91584 | 5005 ft | 122 kts | 96° |
| 2026-05-06 16:01 | 53.04937 | 8.92921 | 5561 ft | 116 kts | 81° |
| 2026-05-06 16:02 | 53.05014 | 8.94305 | 5998 ft | 120 kts | 83° |
| 2026-05-06 16:02 | 53.05087 | 8.95642 | 6474 ft | 123 kts | 86° |
| 2026-05-06 16:02 | 53.05143 | 8.97073 | 6972 ft | 116 kts | 71° |
| 2026-05-06 16:02 | 53.05657 | 8.98118 | 7365 ft | 128 kts | 37° |
| 2026-05-06 16:03 | 53.06512 | 8.98579 | 7878 ft | 130 kts | 14° |
| 2026-05-06 16:03 | 53.07428 | 8.98812 | 8310 ft | 135 kts | 9° |
| 2026-05-06 16:03 | 53.08367 | 8.98947 | 8811 ft | 138 kts | 8° |
| 2026-05-06 16:03 | 53.09313 | 8.99081 | 9367 ft | 135 kts | 10° |
| 2026-05-06 16:04 | 53.10258 | 8.99326 | 9851 ft | 136 kts | 12° |
| 2026-05-06 16:04 | 53.11195 | 8.99535 | 10260 ft | 140 kts | 9° |
| 2026-05-06 16:04 | 53.12150 | 8.99804 | 10715 ft | 141 kts | 11° |
| 2026-05-06 16:04 | 53.12658 | 8.99827 | 10913 ft | 146 kts | 354° |
| 2026-05-06 16:05 | 53.12757 | 8.99796 | 10953 ft | 147 kts | 349° |
| 2026-05-06 16:05 | 53.13754 | 8.99333 | 11426 ft | 147 kts | 347° |
| 2026-05-06 16:05 | 53.14713 | 8.98752 | 11864 ft | 150 kts | 342° |
| 2026-05-06 16:05 | 53.15682 | 8.98104 | 12342 ft | 149 kts | 341° |
| 2026-05-06 16:06 | 53.16666 | 8.97512 | 12771 ft | 151 kts | 343° |
| 2026-05-06 16:06 | 53.17696 | 8.96939 | 13086 ft | 162 kts | 345° |
| 2026-05-06 16:06 | 53.18778 | 8.96372 | 13554 ft | 162 kts | 347° |
| 2026-05-06 16:06 | 53.19862 | 8.95853 | 13956 ft | 166 kts | 344° |
| 2026-05-06 16:07 | 53.20966 | 8.95232 | 14316 ft | 169 kts | 344° |
| 2026-05-06 16:07 | 53.22077 | 8.94606 | 14748 ft | 168 kts | 341° |
| 2026-05-06 16:07 | 53.23185 | 8.93916 | 15136 ft | 170 kts | 341° |
| 2026-05-06 16:07 | 53.24297 | 8.93267 | 15526 ft | 171 kts | 341° |
| 2026-05-06 16:08 | 53.25440 | 8.92633 | 15868 ft | 177 kts | 342° |
| 2026-05-06 16:08 | 53.26685 | 8.91962 | 15889 ft | 201 kts | 342° |
| 2026-05-06 16:08 | 53.28100 | 8.91203 | 15889 ft | 223 kts | 342° |
| 2026-05-06 16:08 | 53.29632 | 8.90355 | 15893 ft | 240 kts | 342° |
| 2026-05-06 16:09 | 53.31271 | 8.89440 | 15893 ft | 254 kts | 342° |
| 2026-05-06 16:09 | 53.32990 | 8.88496 | 15891 ft | 265 kts | 342° |
| 2026-05-06 16:09 | 53.34758 | 8.87570 | 15895 ft | 272 kts | 347° |
| 2026-05-06 16:09 | 53.36664 | 8.87245 | 15891 ft | 277 kts | 356° |
| 2026-05-06 16:10 | 53.38609 | 8.86951 | 15891 ft | 282 kts | 354° |
| 2026-05-06 16:10 | 53.40544 | 8.86612 | 15889 ft | 285 kts | 354° |
| 2026-05-06 16:10 | 53.42529 | 8.86269 | 15886 ft | 287 kts | 353° |
| 2026-05-06 16:10 | 53.44528 | 8.85871 | 15894 ft | 288 kts | 352° |
| 2026-05-06 16:11 | 53.46525 | 8.85506 | 15889 ft | 290 kts | 355° |
| 2026-05-06 16:11 | 53.48548 | 8.85304 | 15887 ft | 290 kts | 356° |
| 2026-05-06 16:11 | 53.50547 | 8.85046 | 15887 ft | 291 kts | 354° |
| 2026-05-06 16:11 | 53.52565 | 8.84703 | 15888 ft | 291 kts | 353° |
| 2026-05-06 16:12 | 53.54570 | 8.84369 | 15887 ft | 291 kts | 354° |
| 2026-05-06 16:12 | 53.56594 | 8.84062 | 15889 ft | 292 kts | 354° |
| 2026-05-06 16:12 | 53.58618 | 8.83754 | 15883 ft | 292 kts | 354° |
| 2026-05-06 16:12 | 53.60638 | 8.83435 | 15888 ft | 291 kts | 353° |
| 2026-05-06 16:13 | 53.62673 | 8.83108 | 15890 ft | 292 kts | 353° |
| 2026-05-06 16:13 | 53.64675 | 8.82795 | 15891 ft | 292 kts | 353° |
| 2026-05-06 16:13 | 53.66709 | 8.82482 | 15888 ft | 292 kts | 353° |
| 2026-05-06 16:13 | 53.68709 | 8.82167 | 15893 ft | 292 kts | 353° |
| 2026-05-06 16:14 | 53.70734 | 8.81844 | 15893 ft | 292 kts | 353° |
| 2026-05-06 16:14 | 53.72765 | 8.81520 | 15888 ft | 292 kts | 353° |
| 2026-05-06 16:14 | 53.74762 | 8.81209 | 15886 ft | 292 kts | 353° |
| 2026-05-06 16:14 | 53.76784 | 8.80877 | 15890 ft | 292 kts | 351° |
| 2026-05-06 16:15 | 53.78734 | 8.80016 | 15884 ft | 289 kts | 334° |
| 2026-05-06 16:15 | 53.80478 | 8.78327 | 15895 ft | 287 kts | 322° |
| 2026-05-06 16:15 | 53.82083 | 8.76379 | 15896 ft | 286 kts | 322° |
| 2026-05-06 16:15 | 53.83759 | 8.74507 | 15893 ft | 287 kts | 324° |
| 2026-05-06 16:16 | 53.85403 | 8.72638 | 15881 ft | 287 kts | 322° |
| 2026-05-06 16:16 | 53.87030 | 8.70676 | 15891 ft | 286 kts | 321° |
| 2026-05-06 16:16 | 53.88660 | 8.68717 | 15890 ft | 286 kts | 322° |
| 2026-05-06 16:16 | 53.90296 | 8.66804 | 15890 ft | 286 kts | 323° |
| 2026-05-06 16:17 | 53.91939 | 8.64894 | 15891 ft | 285 kts | 322° |
| 2026-05-06 16:17 | 53.93541 | 8.62986 | 15886 ft | 285 kts | 322° |
| 2026-05-06 16:17 | 53.95217 | 8.61188 | 15874 ft | 287 kts | 332° |
| 2026-05-06 16:17 | 53.97135 | 8.60198 | 15879 ft | 290 kts | 347° |
| 2026-05-06 16:18 | 53.99156 | 8.60098 | 15880 ft | 293 kts | 2° |
| 2026-05-06 16:18 | 54.01197 | 8.60471 | 15884 ft | 294 kts | 3° |
| 2026-05-06 16:18 | 54.03232 | 8.60781 | 15884 ft | 293 kts | 2° |
| 2026-05-06 16:18 | 54.05264 | 8.61084 | 15883 ft | 293 kts | 2° |
| 2026-05-06 16:19 | 54.07263 | 8.61414 | 15885 ft | 292 kts | 3° |
| 2026-05-06 16:19 | 54.09288 | 8.61793 | 15889 ft | 293 kts | 3° |
| 2026-05-06 16:19 | 54.11318 | 8.62133 | 15888 ft | 292 kts | 2° |
| 2026-05-06 16:19 | 54.13356 | 8.62434 | 15767 ft | 296 kts | 2° |
| 2026-05-06 16:20 | 54.15237 | 8.62725 | 15319 ft | 309 kts | 3° |
| 2026-05-06 16:20 | 54.17410 | 8.63097 | 14830 ft | 315 kts | 4° |
| 2026-05-06 16:20 | 54.19571 | 8.63478 | 14350 ft | 315 kts | 2° |
| 2026-05-06 16:20 | 54.21757 | 8.63804 | 13874 ft | 312 kts | 2° |
| 2026-05-06 16:21 | 54.23890 | 8.64170 | 13355 ft | 304 kts | 4° |
| 2026-05-06 16:21 | 54.25952 | 8.64549 | 12823 ft | 297 kts | 2° |
| 2026-05-06 16:21 | 54.27994 | 8.64821 | 12297 ft | 291 kts | 1° |
| 2026-05-06 16:21 | 54.30010 | 8.65119 | 11779 ft | 287 kts | 4° |
| 2026-05-06 16:22 | 54.31969 | 8.65477 | 11271 ft | 283 kts | 4° |
| 2026-05-06 16:22 | 54.33919 | 8.65808 | 10772 ft | 277 kts | 3° |
| 2026-05-06 16:22 | 54.35702 | 8.66136 | 10277 ft | 233 kts | 5° |
| 2026-05-06 16:22 | 54.37182 | 8.66374 | 9776 ft | 198 kts | 2° |
| 2026-05-06 16:23 | 54.38484 | 8.66542 | 9263 ft | 177 kts | 3° |
| 2026-05-06 16:23 | 54.39678 | 8.66726 | 8827 ft | 173 kts | 4° |
| 2026-05-06 16:23 | 54.40861 | 8.66927 | 8418 ft | 163 kts | 6° |
| 2026-05-06 16:23 | 54.41938 | 8.67117 | 8117 ft | 149 kts | 5° |
| 2026-05-06 16:24 | 54.42926 | 8.67268 | 7836 ft | 140 kts | 5° |
| 2026-05-06 16:24 | 54.43883 | 8.67423 | 7563 ft | 136 kts | 6° |
| 2026-05-06 16:24 | 54.44866 | 8.67571 | 7313 ft | 146 kts | 6° |
| 2026-05-06 16:24 | 54.45884 | 8.67742 | 7070 ft | 151 kts | 7° |
| 2026-05-06 16:25 | 54.46907 | 8.67929 | 6824 ft | 143 kts | 8° |
| 2026-05-06 16:25 | 54.47879 | 8.68092 | 6566 ft | 138 kts | 7° |
| 2026-05-06 16:25 | 54.48821 | 8.68242 | 6321 ft | 134 kts | 8° |
| 2026-05-06 16:25 | 54.49735 | 8.68393 | 6052 ft | 132 kts | 8° |
| 2026-05-06 16:26 | 54.50675 | 8.68541 | 5794 ft | 138 kts | 8° |
| 2026-05-06 16:26 | 54.51624 | 8.68700 | 5551 ft | 137 kts | 8° |
| 2026-05-06 16:26 | 54.52603 | 8.68871 | 5309 ft | 145 kts | 10° |
| 2026-05-06 16:26 | 54.53617 | 8.69063 | 5077 ft | 148 kts | 9° |
| 2026-05-06 16:27 | 54.54645 | 8.69224 | 4833 ft | 149 kts | 10° |
| 2026-05-06 16:27 | 54.55638 | 8.69391 | 4576 ft | 137 kts | 11° |
| 2026-05-06 16:27 | 54.56561 | 8.69541 | 4307 ft | 131 kts | 9° |
| 2026-05-06 16:27 | 54.57458 | 8.69699 | 4037 ft | 129 kts | 11° |
| 2026-05-06 16:28 | 54.58335 | 8.69844 | 3772 ft | 127 kts | 10° |
| 2026-05-06 16:28 | 54.59212 | 8.69990 | 3515 ft | 125 kts | 10° |
| 2026-05-06 16:28 | 54.60125 | 8.70112 | 3268 ft | 138 kts | 9° |
| 2026-05-06 16:28 | 54.61112 | 8.70277 | 3056 ft | 144 kts | 8° |
| 2026-05-06 16:29 | 54.62089 | 8.70048 | 2951 ft | 145 kts | 337° |
| 2026-05-06 16:29 | 54.62850 | 8.68929 | 2882 ft | 143 kts | 325° |
| 2026-05-06 16:29 | 54.63616 | 8.67874 | 2923 ft | 142 kts | 328° |
| 2026-05-06 16:29 | 54.64429 | 8.66801 | 2944 ft | 151 kts | 326° |
| 2026-05-06 16:30 | 54.65281 | 8.65724 | 3046 ft | 154 kts | 330° |
| 2026-05-06 16:30 | 54.65878 | 8.65045 | 3043 ft | 156 kts | 330° |
| 2026-05-06 16:30 | 54.67126 | 8.63726 | 2988 ft | 158 kts | 334° |
| 2026-05-06 16:30 | 54.68044 | 8.62689 | 3011 ft | 157 kts | 328° |
| 2026-05-06 16:31 | 54.68947 | 8.61609 | 3001 ft | 157 kts | 329° |
| 2026-05-06 16:31 | 54.69841 | 8.60466 | 3009 ft | 164 kts | 327° |
| 2026-05-06 16:31 | 54.70745 | 8.59223 | 3034 ft | 172 kts | 326° |
| 2026-05-06 16:31 | 54.71756 | 8.58050 | 3019 ft | 176 kts | 332° |
| 2026-05-06 16:32 | 54.72787 | 8.56891 | 3023 ft | 178 kts | 330° |
| 2026-05-06 16:32 | 54.73797 | 8.55656 | 3018 ft | 177 kts | 328° |
| 2026-05-06 16:32 | 54.74791 | 8.54431 | 3021 ft | 174 kts | 328° |
| 2026-05-06 16:32 | 54.75774 | 8.53231 | 3020 ft | 172 kts | 329° |
| 2026-05-06 16:33 | 54.76741 | 8.52039 | 3016 ft | 171 kts | 329° |
| 2026-05-06 16:33 | 54.77711 | 8.50838 | 3001 ft | 170 kts | 328° |
| 2026-05-06 16:33 | 54.78625 | 8.49643 | 2926 ft | 156 kts | 328° |
| 2026-05-06 16:34 | 54.80353 | 8.47524 | 2496 ft | 151 kts | 330° |
| 2026-05-06 16:34 | 54.81218 | 8.46499 | 2268 ft | 150 kts | 330° |
| 2026-05-06 16:34 | 54.82051 | 8.45478 | 2092 ft | 145 kts | 328° |
| 2026-05-06 16:34 | 54.82829 | 8.44469 | 1915 ft | 131 kts | 330° |
| 2026-05-06 16:35 | 54.83524 | 8.43585 | 1759 ft | 118 kts | 330° |
| 2026-05-06 16:35 | 54.84162 | 8.42771 | 1616 ft | 112 kts | 329° |
| 2026-05-06 16:35 | 54.84729 | 8.42092 | 1444 ft | 85 kts | 333° |
| 2026-05-06 16:35 | 54.85187 | 8.41537 | 1300 ft | 79 kts | 330° |
| 2026-05-06 16:36 | 54.85617 | 8.40965 | 1182 ft | 78 kts | 329° |
| 2026-05-06 16:36 | 54.85910 | 8.40583 | 1109 ft | 79 kts | 327° |
| 2026-05-06 16:36 | 54.86480 | 8.39806 | 977 ft | 78 kts | 337° |
| 2026-05-06 16:36 | 54.86801 | 8.39510 | 868 ft | 78 kts | 335° |
| 2026-05-06 16:37 | 54.87252 | 8.38993 | 713 ft | 77 kts | 329° |
| 2026-05-06 16:37 | 54.87693 | 8.38440 | 620 ft | 79 kts | 328° |
| 2026-05-06 16:37 | 54.88140 | 8.37881 | 581 ft | 78 kts | 331° |
| 2026-05-06 16:37 | 54.88590 | 8.37376 | 517 ft | 77 kts | 330° |
| 2026-05-06 16:38 | 54.89021 | 8.36818 | 421 ft | 77 kts | 326° |
| 2026-05-06 16:38 | 54.89460 | 8.36315 | 267 ft | 73 kts | 332° |
| 2026-05-06 16:38 | 54.89879 | 8.35833 | 149 ft | 72 kts | 332° |
| 2026-05-06 16:38 | 54.90278 | 8.35326 | 64 ft | 70 kts | 329° |
| 2026-05-06 16:39 | 54.90653 | 8.34869 | 30 ft | 55 kts | 326° |
| 2026-05-06 16:39 | 54.90860 | 8.34623 | 30 ft | 27 kts | 323° |
| 2026-05-06 16:39 | 54.91008 | 8.34436 | 32 ft | 28 kts | 323° |
| 2026-05-06 16:39 | 54.91183 | 8.34223 | 32 ft | 26 kts | 324° |
| 2026-05-06 16:40 | 54.91299 | 8.34067 | 31 ft | 20 kts | 308° |
| 2026-05-06 16:40 | 54.91262 | 8.33875 | 29 ft | 21 kts | 244° |
| 2026-05-06 16:40 | 54.91195 | 8.33655 | 28 ft | 15 kts | 240° |
| 2026-05-06 16:40 | 54.91143 | 8.33480 | 27 ft | 19 kts | 245° |
| 2026-05-06 16:41 | 54.91072 | 8.33271 | 28 ft | 17 kts | 246° |
| 2026-05-06 16:41 | 54.91061 | 8.33182 | 28 ft | 4 kts | 244° |
| 2026-05-06 16:41 | 54.91035 | 8.33084 | 28 ft | 14 kts | 237° |
| 2026-05-06 16:41 | 54.91041 | 8.32948 | 27 ft | 11 kts | 311° |
| 2026-05-06 16:42 | 54.91103 | 8.32824 | 23 ft | 16 kts | 313° |
| 2026-05-06 16:42 | 54.91141 | 8.32745 | 22 ft | 3 kts | 316° |
| 2026-05-06 16:42 | 54.91147 | 8.32734 | 22 ft | 0 kts | 316° |
| 2026-05-06 16:42 | 54.91175 | 8.32687 | 22 ft | 14 kts | 318° |
| 2026-05-06 16:43 | 54.91234 | 8.32592 | 22 ft | 6 kts | 327° |
| 2026-05-06 16:43 | 54.91252 | 8.32532 | 22 ft | 9 kts | 242° |
| 2026-05-06 16:43 | 54.91249 | 8.32521 | 25 ft | 0 kts | 246° |